Time;durP1;ratioP1;P1;durP2;ratioP2;P2;SDS_P1;SDS_P2;PMS_P1;PMS_P2;Temp;Humidity;BMP_temperature;BMP_pressure;BME280_temperature;BME280_humidity;BME280_pressure;Samples;Min_cycle;Max_cycle;Signal;HPM_P1;HPM_P2
2022/12/03 00:01:03;;;;;;;25.70;15.98;;;2.60;99.90;;;;;;5103250;27;20394;-45
2022/12/03 00:03:29;;;;;;;28.77;17.25;;;2.60;99.90;;;;;;5103324;27;20159;-46
2022/12/03 00:05:55;;;;;;;29.00;18.98;;;2.70;99.90;;;;;;5099601;28;20118;-46
2022/12/03 00:08:20;;;;;;;26.17;15.05;;;2.70;99.90;;;;;;5101139;28;20063;-46
2022/12/03 00:10:46;;;;;;;27.63;16.08;;;2.70;99.90;;;;;;5100879;28;20122;-46
2022/12/03 00:13:11;;;;;;;27.50;15.73;;;2.70;99.90;;;;;;5099208;28;20408;-46
2022/12/03 00:15:37;;;;;;;29.45;16.40;;;2.70;99.90;;;;;;5093215;28;20059;-49
2022/12/03 00:18:03;;;;;;;29.08;15.82;;;2.70;99.90;;;;;;5091129;28;20120;-48
2022/12/03 00:20:28;;;;;;;33.50;19.95;;;2.80;99.90;;;;;;5090009;28;20035;-47
2022/12/03 00:22:54;;;;;;;33.05;19.20;;;2.80;99.90;;;;;;5097813;28;20115;-47
2022/12/03 00:25:19;;;;;;;22.35;14.23;;;2.80;99.90;;;;;;5098870;28;20138;-47
2022/12/03 00:27:45;;;;;;;23.88;12.50;;;2.80;99.90;;;;;;5100324;28;20036;-48
2022/12/03 00:30:12;;;;;;;31.17;18.83;;;2.80;99.90;;;;;;5099039;28;20088;-46
2022/12/03 00:32:37;;;;;;;23.88;13.93;;;2.90;99.90;;;;;;5100720;28;20406;-47
2022/12/03 00:35:03;;;;;;;34.00;18.67;;;2.90;99.90;;;;;;5098439;28;20043;-46
2022/12/03 00:37:29;;;;;;;32.97;18.92;;;2.90;99.90;;;;;;5097930;28;20035;-47
2022/12/03 00:39:55;;;;;;;29.17;16.85;;;2.90;99.90;;;;;;5100197;28;20112;-46
2022/12/03 00:42:20;;;;;;;32.42;19.48;;;3.20;99.90;;;;;;5093184;28;20465;-46
2022/12/03 00:44:46;;;;;;;30.30;17.65;;;2.90;99.90;;;;;;5100058;28;20051;-47
2022/12/03 00:47:11;;;;;;;21.35;12.23;;;2.90;99.90;;;;;;5097249;28;20040;-49
2022/12/03 00:49:37;;;;;;;29.30;18.55;;;2.90;99.90;;;;;;5100283;28;20036;-50
2022/12/03 00:52:02;;;;;;;30.45;19.33;;;2.90;99.90;;;;;;5108442;28;20070;-46
2022/12/03 00:54:28;;;;;;;35.00;19.08;;;2.90;99.90;;;;;;5076997;28;20093;-46
2022/12/03 00:56:54;;;;;;;33.08;18.73;;;2.90;99.90;;;;;;5094728;28;20044;-46
2022/12/03 00:59:19;;;;;;;33.92;18.70;;;3.00;99.90;;;;;;5106108;28;20036;-46
2022/12/03 01:01:45;;;;;;;36.45;20.25;;;3.00;99.90;;;;;;5115408;28;20042;-46
2022/12/03 01:04:10;;;;;;;35.42;20.67;;;3.00;99.90;;;;;;5109046;28;20035;-46
2022/12/03 01:06:36;;;;;;;30.08;15.30;;;3.00;99.90;;;;;;5113283;28;20463;-46
2022/12/03 01:09:02;;;;;;;35.78;20.77;;;3.00;99.90;;;;;;5115157;28;20077;-48
2022/12/03 01:11:37;;;;;;;28.17;15.45;;;3.00;99.90;;;;;;5103258;28;20036;-46
2022/12/03 01:14:10;;;;;;;34.95;21.35;;;3.00;99.90;;;;;;5100818;28;20035;-47
2022/12/03 01:16:37;;;;;;;31.38;19.48;;;3.00;99.90;;;;;;5098531;28;20031;-52
2022/12/03 01:19:04;;;;;;;32.40;18.25;;;3.00;99.90;;;;;;5102007;28;20477;-48
2022/12/03 01:21:30;;;;;;;31.90;17.63;;;3.00;99.90;;;;;;5098284;28;20042;-46
2022/12/03 01:23:55;;;;;;;25.92;15.10;;;3.00;99.90;;;;;;5097038;28;20036;-48
2022/12/03 01:26:21;;;;;;;28.52;16.00;;;3.00;99.90;;;;;;5101311;28;20401;-46
2022/12/03 01:28:47;;;;;;;26.15;16.02;;;3.10;99.90;;;;;;5091386;28;20449;-47
2022/12/03 01:33:57;;;;;;;31.80;20.33;;;3.10;99.90;;;;;;5100816;28;20043;-47
2022/12/03 01:36:22;;;;;;;33.80;20.17;;;3.10;99.90;;;;;;5100380;28;20036;-50
2022/12/03 01:38:48;;;;;;;26.52;15.07;;;3.00;99.90;;;;;;5100249;28;20040;-48
2022/12/03 01:41:15;;;;;;;31.10;19.83;;;3.10;99.90;;;;;;5099299;28;20473;-46
2022/12/03 01:43:42;;;;;;;32.13;18.40;;;3.10;99.90;;;;;;5081525;28;20052;-46
2022/12/03 01:46:11;;;;;;;32.72;18.15;;;3.10;99.90;;;;;;5101589;28;20035;-46
2022/12/03 01:48:37;;;;;;;34.45;18.27;;;3.10;99.90;;;;;;5103188;28;20040;-46
2022/12/03 01:51:03;;;;;;;31.50;18.75;;;3.00;99.90;;;;;;5078771;28;20126;-46
2022/12/03 01:53:28;;;;;;;32.28;19.63;;;3.00;99.90;;;;;;5109667;28;20490;-48
2022/12/03 01:55:54;;;;;;;30.02;19.10;;;3.00;99.90;;;;;;5111870;28;20047;-46
2022/12/03 01:58:25;;;;;;;29.00;19.13;;;3.00;99.90;;;;;;5104033;28;20062;-47
2022/12/03 02:00:50;;;;;;;32.50;19.92;;;3.10;99.90;;;;;;5104592;28;20413;-47
2022/12/03 02:03:21;;;;;;;29.70;17.23;;;3.10;99.90;;;;;;5113874;28;20035;-46
2022/12/03 02:05:47;;;;;;;33.80;20.98;;;3.00;99.90;;;;;;5096500;28;20087;-47
2022/12/03 02:08:33;;;;;;;29.52;18.23;;;3.00;99.90;;;;;;5112540;28;20506;-46
2022/12/03 02:11:17;;;;;;;31.77;20.42;;;3.00;99.90;;;;;;5112996;28;20181;-47
2022/12/03 02:13:44;;;;;;;29.42;16.85;;;3.00;99.90;;;;;;5093410;28;20058;-46
2022/12/03 02:16:09;;;;;;;26.30;14.57;;;3.00;99.90;;;;;;5098903;28;20050;-46
2022/12/03 02:18:35;;;;;;;27.80;17.02;;;3.00;99.90;;;;;;5097547;28;20397;-48
2022/12/03 02:21:04;;;;;;;30.77;20.55;;;3.00;99.90;;;;;;5099027;28;20051;-46
2022/12/03 02:24:01;;;;;;;32.00;19.15;;;3.00;99.90;;;;;;5099544;28;20134;-46
2022/12/03 02:26:26;;;;;;;24.77;15.68;;;3.00;99.90;;;;;;5092795;28;20046;-46
2022/12/03 02:28:52;;;;;;;29.98;18.50;;;3.00;99.90;;;;;;5098258;28;20027;-48
2022/12/03 02:31:18;;;;;;;26.42;16.98;;;3.00;99.90;;;;;;5100386;28;20436;-46
2022/12/03 02:33:44;;;;;;;25.10;14.77;;;3.00;99.90;;;;;;5099805;28;20381;-49
2022/12/03 02:36:10;;;;;;;22.88;14.13;;;3.00;99.90;;;;;;5097375;28;20055;-46
2022/12/03 02:38:36;;;;;;;24.75;14.95;;;3.00;99.90;;;;;;5095965;28;20111;-47
2022/12/03 02:41:06;;;;;;;31.02;20.20;;;3.00;99.90;;;;;;5096004;28;20519;-47
2022/12/03 02:43:31;;;;;;;31.88;20.13;;;3.00;99.90;;;;;;5095721;28;20039;-46
2022/12/03 02:46:00;;;;;;;32.97;21.13;;;3.00;99.90;;;;;;5096497;28;20351;-46
2022/12/03 02:48:33;;;;;;;31.55;18.52;;;3.00;99.90;;;;;;5096715;28;20044;-47
2022/12/03 02:51:02;;;;;;;26.40;18.30;;;3.00;99.90;;;;;;5098597;28;20031;-48
2022/12/03 02:53:32;;;;;;;25.05;16.48;;;3.00;99.90;;;;;;5098524;28;20516;-47
2022/12/03 02:56:00;;;;;;;30.25;19.65;;;3.00;99.90;;;;;;5095719;28;20111;-47
2022/12/03 02:58:30;;;;;;;29.88;19.30;;;3.00;99.90;;;;;;5098272;28;20039;-46
2022/12/03 03:00:56;;;;;;;24.23;14.85;;;3.00;99.90;;;;;;5097458;28;20088;-46
2022/12/03 03:03:24;;;;;;;30.95;18.95;;;3.00;99.90;;;;;;5100096;28;20822;-47
2022/12/03 03:05:50;;;;;;;30.77;19.80;;;3.00;99.90;;;;;;5100317;28;20035;-48
2022/12/03 03:08:17;;;;;;;28.73;16.98;;;3.00;99.90;;;;;;5102969;28;20047;-47
2022/12/03 03:10:45;;;;;;;27.40;16.83;;;3.00;99.90;;;;;;5098980;28;20040;-47
2022/12/03 03:13:15;;;;;;;29.65;18.58;;;3.00;99.90;;;;;;5105306;28;20473;-47
2022/12/03 03:15:41;;;;;;;31.55;19.50;;;3.00;99.90;;;;;;5102221;28;20039;-51
2022/12/03 03:18:08;;;;;;;26.30;16.80;;;3.00;99.90;;;;;;5105533;28;20039;-47
2022/12/03 03:20:34;;;;;;;31.98;21.08;;;2.90;99.90;;;;;;5100221;28;20047;-47
2022/12/03 03:23:21;;;;;;;33.88;19.60;;;2.90;99.90;;;;;;5093752;28;20443;-47
2022/12/03 03:25:57;;;;;;;30.05;18.95;;;2.90;99.90;;;;;;5094521;28;20051;-47
2022/12/03 03:28:24;;;;;;;33.47;19.98;;;3.00;99.90;;;;;;5099689;28;20044;-49
2022/12/03 03:30:50;;;;;;;31.10;19.30;;;3.00;99.90;;;;;;5102757;28;20048;-46
2022/12/03 03:33:16;;;;;;;31.92;19.50;;;2.90;99.90;;;;;;5103145;28;20421;-48
2022/12/03 03:35:43;;;;;;;32.80;20.92;;;2.90;99.90;;;;;;5100377;28;20040;-46
2022/12/03 03:38:09;;;;;;;29.15;19.23;;;2.90;99.90;;;;;;5100601;28;20051;-47
2022/12/03 03:40:36;;;;;;;27.58;17.75;;;2.90;99.90;;;;;;5089732;28;20055;-47
2022/12/03 03:43:03;;;;;;;30.95;20.35;;;2.90;99.90;;;;;;5090197;28;20159;-46
2022/12/03 03:45:28;;;;;;;31.02;19.73;;;2.90;99.90;;;;;;5095867;28;20048;-48
2022/12/03 03:47:56;;;;;;;30.85;19.60;;;2.90;99.90;;;;;;5090809;28;20109;-45
2022/12/03 03:50:22;;;;;;;29.95;19.63;;;2.90;99.90;;;;;;5089208;28;20047;-48
2022/12/03 03:52:47;;;;;;;29.52;18.40;;;2.90;99.90;;;;;;5089552;28;20067;-49
2022/12/03 03:55:13;;;;;;;30.50;20.67;;;2.90;99.90;;;;;;5086480;28;20139;-47
2022/12/03 03:57:39;;;;;;;30.52;19.48;;;2.90;99.90;;;;;;5100540;28;20040;-48
2022/12/03 04:00:07;;;;;;;26.23;17.08;;;2.90;99.90;;;;;;5102110;28;20494;-48
2022/12/03 04:02:33;;;;;;;27.13;18.15;;;2.90;99.90;;;;;;5104389;28;20416;-47
2022/12/03 04:04:59;;;;;;;30.80;20.52;;;2.90;99.90;;;;;;5099488;28;20116;-46
2022/12/03 04:07:25;;;;;;;24.98;17.02;;;2.90;99.90;;;;;;5090428;28;20059;-50
2022/12/03 04:09:50;;;;;;;28.45;17.67;;;2.90;99.90;;;;;;5090641;28;20036;-47
2022/12/03 04:15:00;;;;;;;23.65;14.98;;;2.90;99.90;;;;;;5097098;28;20108;-48
2022/12/03 04:17:26;;;;;;;30.13;19.25;;;2.90;99.90;;;;;;5100206;28;20131;-48
2022/12/03 04:19:51;;;;;;;27.95;17.83;;;2.90;99.90;;;;;;5100699;28;20485;-45
2022/12/03 04:30:30;;;;;;;27.88;18.73;;;2.90;99.90;;;;;;5099735;28;20504;-46
2022/12/03 04:35:43;;;;;;;26.48;15.77;;;2.90;99.90;;;;;;5091997;28;20408;-48
2022/12/03 04:38:13;;;;;;;30.38;18.55;;;2.80;99.90;;;;;;5096727;28;20032;-46
2022/12/03 04:43:25;;;;;;;32.78;20.85;;;2.80;99.90;;;;;;5090756;28;20057;-47
2022/12/03 04:45:50;;;;;;;29.88;19.50;;;2.80;99.90;;;;;;5091368;28;20048;-46
2022/12/03 04:48:16;;;;;;;28.35;18.27;;;2.80;99.90;;;;;;5095071;28;20040;-47
2022/12/03 04:50:42;;;;;;;30.80;19.55;;;2.80;99.90;;;;;;5085773;28;20401;-51
2022/12/03 04:53:07;;;;;;;29.65;20.05;;;2.80;99.90;;;;;;5088355;28;20048;-46
2022/12/03 04:55:33;;;;;;;32.20;20.48;;;2.80;99.90;;;;;;5092048;28;20098;-46
2022/12/03 04:57:59;;;;;;;30.52;18.67;;;2.80;99.90;;;;;;5092951;28;20035;-48
2022/12/03 05:00:25;;;;;;;32.42;20.60;;;2.80;99.90;;;;;;5089556;28;20040;-47
2022/12/03 05:02:50;;;;;;;30.25;17.70;;;2.80;99.90;;;;;;5091885;28;20405;-47
2022/12/03 05:05:16;;;;;;;32.53;22.63;;;2.80;99.90;;;;;;5089649;28;20382;-46
2022/12/03 05:07:42;;;;;;;25.48;17.90;;;2.80;99.90;;;;;;5093558;28;20482;-48
2022/12/03 05:10:08;;;;;;;30.27;21.25;;;2.80;99.90;;;;;;5094457;28;20369;-48
2022/12/03 05:12:34;;;;;;;30.60;19.25;;;2.80;99.90;;;;;;5092415;28;20046;-46
2022/12/03 05:15:00;;;;;;;31.55;21.23;;;2.80;99.90;;;;;;5094663;28;20035;-48
2022/12/03 05:17:25;;;;;;;34.83;23.15;;;2.70;99.90;;;;;;5092219;28;20617;-47
2022/12/03 05:22:35;;;;;;;36.97;23.40;;;2.70;99.90;;;;;;5090523;28;20043;-47
2022/12/03 05:25:01;;;;;;;38.95;25.00;;;2.70;99.90;;;;;;5091202;28;20500;-49
2022/12/03 05:27:26;;;;;;;38.00;20.35;;;2.60;99.90;;;;;;5097426;28;20145;-46
2022/12/03 05:29:52;;;;;;;41.40;25.23;;;2.60;99.90;;;;;;5093283;28;20031;-47
2022/12/03 05:32:21;;;;;;;38.63;25.65;;;2.60;99.90;;;;;;5092291;28;20516;-46
2022/12/03 05:34:46;;;;;;;39.35;24.85;;;2.50;99.90;;;;;;5091039;28;20036;-48
2022/12/03 05:37:12;;;;;;;36.83;22.30;;;2.50;99.90;;;;;;5091310;28;20052;-47
2022/12/03 05:39:37;;;;;;;38.58;23.80;;;2.50;99.90;;;;;;5087569;28;20055;-48
2022/12/03 05:44:47;;;;;;;38.35;21.35;;;2.40;99.90;;;;;;5087812;28;20048;-46
2022/12/03 05:47:13;;;;;;;40.70;27.02;;;2.40;99.90;;;;;;5088378;28;20574;-48
2022/12/03 05:49:39;;;;;;;39.00;23.60;;;2.30;99.90;;;;;;5088165;28;21508;-47
2022/12/03 05:52:04;;;;;;;39.83;24.50;;;2.30;99.90;;;;;;5088412;28;20039;-46
2022/12/03 05:54:30;;;;;;;43.42;26.27;;;2.30;99.90;;;;;;5088395;28;20042;-47
2022/12/03 05:56:56;;;;;;;39.13;24.33;;;2.30;99.90;;;;;;5089884;28;20046;-47
2022/12/03 05:59:21;;;;;;;41.72;25.35;;;2.30;99.90;;;;;;5088062;28;20070;-46
2022/12/03 06:01:47;;;;;;;37.72;22.98;;;2.20;99.90;;;;;;5097697;28;20047;-48
2022/12/03 06:04:12;;;;;;;42.55;24.45;;;2.40;99.90;;;;;;5086753;28;20438;-48
2022/12/03 06:06:38;;;;;;;42.50;24.80;;;2.20;99.90;;;;;;5088386;28;20036;-49
2022/12/03 06:09:03;;;;;;;38.03;23.20;;;2.20;99.90;;;;;;5090268;28;20089;-46
2022/12/03 06:11:33;;;;;;;36.95;23.38;;;2.40;99.90;;;;;;5092554;28;20509;-49
2022/12/03 06:13:59;;;;;;;38.70;24.45;;;;;;;;;;5101245;28;20046;-46
2022/12/03 06:16:25;;;;;;;41.72;26.00;;;2.10;99.90;;;;;;5097082;28;20052;-48
2022/12/03 06:18:51;;;;;;;40.33;24.48;;;2.10;99.90;;;;;;5100494;28;20043;-47
2022/12/03 06:21:16;;;;;;;33.92;19.40;;;2.10;99.90;;;;;;5099812;28;20484;-47
2022/12/03 06:23:43;;;;;;;37.03;24.33;;;2.10;99.90;;;;;;5101435;28;20039;-46
2022/12/03 06:26:13;;;;;;;38.92;24.10;;;2.10;99.90;;;;;;5096536;28;20043;-47
2022/12/03 06:28:39;;;;;;;40.78;23.55;;;2.10;99.90;;;;;;5097983;28;20488;-47
2022/12/03 06:31:05;;;;;;;38.47;23.30;;;2.00;99.90;;;;;;5101281;28;20043;-46
2022/12/03 06:33:31;;;;;;;35.65;20.80;;;2.00;99.90;;;;;;5098934;28;20035;-47
2022/12/03 06:35:56;;;;;;;34.83;20.88;;;2.00;99.90;;;;;;5096872;28;20035;-46
2022/12/03 06:38:22;;;;;;;34.92;20.35;;;2.00;99.90;;;;;;5097732;28;20120;-46
2022/12/03 06:40:48;;;;;;;37.70;22.80;;;2.00;99.90;;;;;;5097784;28;20181;-46
2022/12/03 06:43:13;;;;;;;29.33;17.65;;;1.90;99.90;;;;;;5087270;28;20050;-47
2022/12/03 06:45:39;;;;;;;33.42;22.35;;;2.00;99.90;;;;;;5086807;28;21858;-47
2022/12/03 06:48:05;;;;;;;33.72;21.08;;;1.90;99.90;;;;;;5088461;28;20481;-46
2022/12/03 06:50:31;;;;;;;32.90;20.63;;;;;;;;;;5089373;28;20118;-47
2022/12/03 06:52:56;;;;;;;34.38;20.63;;;1.80;99.90;;;;;;5089092;28;20184;-47
2022/12/03 06:55:22;;;;;;;32.63;18.63;;;1.80;99.90;;;;;;5088530;28;20040;-47
2022/12/03 06:57:48;;;;;;;32.15;19.52;;;1.80;99.90;;;;;;5088498;28;20126;-49
2022/12/03 07:00:14;;;;;;;31.33;19.40;;;1.80;99.90;;;;;;5088108;28;20082;-47
2022/12/03 07:02:39;;;;;;;33.70;21.50;;;1.70;99.90;;;;;;5090348;28;20075;-47
2022/12/03 07:05:05;;;;;;;33.40;21.08;;;1.70;99.90;;;;;;5087804;28;20202;-46
2022/12/03 07:07:31;;;;;;;33.78;20.10;;;;;;;;;;5087515;28;20028;-47
2022/12/03 07:09:57;;;;;;;33.28;19.42;;;1.70;99.90;;;;;;5087563;28;20036;-48
2022/12/03 07:12:23;;;;;;;32.33;20.90;;;1.70;99.90;;;;;;5086157;28;20105;-46
2022/12/03 07:14:49;;;;;;;22.70;12.88;;;1.60;99.90;;;;;;5089098;28;20044;-46
2022/12/03 07:17:14;;;;;;;33.22;21.42;;;1.60;99.90;;;;;;5088057;28;20036;-46
2022/12/03 07:19:40;;;;;;;35.03;19.95;;;1.60;99.90;;;;;;5093676;28;20031;-50
2022/12/03 07:22:05;;;;;;;30.42;18.98;;;1.60;99.90;;;;;;5092454;28;20040;-50
2022/12/03 07:24:31;;;;;;;34.55;21.75;;;1.60;99.90;;;;;;5099614;28;20038;-47
2022/12/03 07:26:57;;;;;;;28.67;17.77;;;1.60;99.90;;;;;;5091982;28;20036;-48
2022/12/03 07:29:23;;;;;;;31.92;18.77;;;1.60;99.90;;;;;;5087131;28;20062;-47
2022/12/03 07:31:48;;;;;;;32.47;20.52;;;1.50;99.90;;;;;;5091656;28;20473;-48
2022/12/03 07:34:14;;;;;;;34.08;19.80;;;1.50;99.90;;;;;;5084178;28;20055;-46
2022/12/03 07:36:39;;;;;;;32.00;19.33;;;1.50;99.90;;;;;;5088542;28;20036;-48
2022/12/03 07:39:05;;;;;;;32.40;20.20;;;1.50;99.90;;;;;;5089283;28;20370;-49
2022/12/03 07:41:31;;;;;;;33.65;20.38;;;1.50;99.90;;;;;;5092585;28;20131;-50
2022/12/03 07:43:56;;;;;;;35.13;20.80;;;1.50;99.90;;;;;;5087992;28;20046;-49
2022/12/03 07:46:22;;;;;;;31.10;19.13;;;1.50;99.90;;;;;;5086207;28;20047;-47
2022/12/03 07:48:47;;;;;;;26.45;14.65;;;1.50;99.90;;;;;;5098086;28;20042;-47
2022/12/03 07:51:13;;;;;;;32.10;20.38;;;1.40;99.90;;;;;;5101667;28;20040;-48
2022/12/03 07:53:39;;;;;;;36.97;22.75;;;1.40;99.90;;;;;;5091285;28;20036;-47
2022/12/03 07:56:05;;;;;;;36.42;20.00;;;1.40;99.90;;;;;;5093194;28;20442;-47
2022/12/03 07:58:30;;;;;;;30.38;18.77;;;1.30;99.90;;;;;;5092971;28;20039;-48
2022/12/03 08:00:56;;;;;;;33.20;18.13;;;1.30;99.90;;;;;;5089544;28;20036;-47
2022/12/03 08:03:22;;;;;;;37.30;21.95;;;1.30;99.90;;;;;;5088011;28;20126;-47
2022/12/03 08:05:48;;;;;;;36.60;22.35;;;1.30;99.90;;;;;;5090702;28;20039;-47
2022/12/03 08:08:14;;;;;;;35.85;21.35;;;1.30;99.90;;;;;;5092505;28;20152;-47
2022/12/03 08:10:39;;;;;;;30.88;17.65;;;1.30;99.90;;;;;;5089384;28;20035;-47
2022/12/03 08:13:16;;;;;;;33.03;20.25;;;1.30;99.90;;;;;;5101657;28;20122;-47
2022/12/03 08:15:43;;;;;;;35.45;21.05;;;1.30;99.90;;;;;;5105820;28;20501;-48
2022/12/03 08:18:13;;;;;;;34.83;21.40;;;1.30;99.90;;;;;;5099607;28;20036;-47
2022/12/03 08:20:41;;;;;;;36.13;17.00;;;1.30;99.90;;;;;;5099452;28;20036;-49
2022/12/03 08:23:17;;;;;;;29.88;15.90;;;1.30;99.90;;;;;;5104646;28;20482;-47
2022/12/03 08:25:43;;;;;;;37.30;22.77;;;1.30;99.90;;;;;;5104103;28;20035;-50
2022/12/03 08:28:21;;;;;;;36.20;21.17;;;1.30;99.90;;;;;;5098673;28;20040;-48
2022/12/03 08:31:01;;;;;;;37.75;21.70;;;1.30;99.90;;;;;;5095379;28;20044;-46
2022/12/03 08:33:35;;;;;;;38.97;23.80;;;1.30;99.90;;;;;;5097343;28;20048;-48
2022/12/03 08:36:22;;;;;;;36.75;21.58;;;1.30;99.90;;;;;;5100557;28;20071;-47
2022/12/03 08:38:57;;;;;;;34.50;18.67;;;1.30;99.90;;;;;;5095752;28;20493;-46
2022/12/03 08:44:18;;;;;;;40.47;23.40;;;1.30;99.90;;;;;;5101723;28;20052;-49
2022/12/03 08:46:44;;;;;;;37.30;22.90;;;1.30;99.90;;;;;;5100381;28;20072;-47
2022/12/03 08:49:10;;;;;;;39.95;23.67;;;1.30;99.90;;;;;;5100104;28;20076;-49
2022/12/03 08:51:35;;;;;;;41.42;24.40;;;1.30;99.90;;;;;;5097478;28;20409;-47
2022/12/03 08:54:13;;;;;;;45.00;25.20;;;1.30;99.90;;;;;;5102776;28;20035;-47
2022/12/03 08:56:40;;;;;;;38.55;22.95;;;1.40;99.90;;;;;;5097990;28;20039;-47
2022/12/03 08:59:25;;;;;;;42.95;24.42;;;1.30;99.90;;;;;;5100726;28;20040;-47
2022/12/03 09:01:52;;;;;;;38.22;20.27;;;1.30;99.90;;;;;;5065346;23;20428;-48
2022/12/03 09:04:22;;;;;;;41.15;22.25;;;1.30;99.90;;;;;;5011838;28;20054;-48
2022/12/03 09:06:49;;;;;;;41.78;24.85;;;1.30;99.90;;;;;;5030345;28;20041;-48
2022/12/03 09:09:15;;;;;;;37.85;20.25;;;1.40;99.90;;;;;;5030428;28;20045;-47
2022/12/03 09:11:44;;;;;;;44.67;24.92;;;1.50;99.90;;;;;;5022186;28;20045;-47
2022/12/03 09:14:12;;;;;;;35.47;21.90;;;1.40;99.90;;;;;;5092835;22;20150;-47
2022/12/03 09:16:38;;;;;;;39.72;22.00;;;1.50;99.90;;;;;;5086491;28;20036;-47
2022/12/03 09:19:05;;;;;;;41.85;23.50;;;1.40;99.90;;;;;;5090205;28;20040;-47
2022/12/03 09:21:31;;;;;;;40.78;21.55;;;1.40;99.90;;;;;;5073824;28;20118;-47
2022/12/03 09:23:56;;;;;;;40.35;23.83;;;1.40;99.90;;;;;;5090607;28;20402;-49
2022/12/03 09:26:22;;;;;;;45.80;25.42;;;1.40;99.90;;;;;;5092124;28;20048;-47
2022/12/03 09:28:48;;;;;;;44.60;23.30;;;1.40;99.90;;;;;;5089135;28;20040;-48
2022/12/03 09:31:14;;;;;;;44.08;21.90;;;1.50;99.90;;;;;;5073676;28;20118;-47
2022/12/03 09:33:40;;;;;;;40.42;18.90;;;1.40;99.90;;;;;;5090230;28;20084;-48
2022/12/03 09:36:06;;;;;;;41.75;23.15;;;1.50;99.90;;;;;;5090991;28;20044;-51
2022/12/03 09:38:32;;;;;;;35.90;19.67;;;1.50;99.90;;;;;;5091289;28;20343;-46
2022/12/03 09:40:58;;;;;;;45.20;25.77;;;1.40;99.90;;;;;;5073945;28;20497;-47
2022/12/03 09:43:26;;;;;;;45.08;26.55;;;1.50;99.90;;;;;;5088950;28;20432;-45
2022/12/03 09:45:52;;;;;;;38.58;20.50;;;1.50;99.90;;;;;;5087211;28;20044;-47
2022/12/03 09:48:19;;;;;;;47.97;27.90;;;1.50;99.90;;;;;;5071711;28;20436;-45
2022/12/03 09:50:45;;;;;;;42.67;21.60;;;1.60;99.90;;;;;;5084069;28;20060;-46
2022/12/03 09:53:18;;;;;;;42.78;21.83;;;1.60;99.90;;;;;;5087376;28;20210;-46
2022/12/03 09:55:44;;;;;;;45.03;23.33;;;1.50;99.90;;;;;;5079748;28;20391;-46
2022/12/03 09:58:12;;;;;;;32.88;17.27;;;1.60;99.90;;;;;;5087611;28;20032;-46
2022/12/03 10:00:53;;;;;;;34.40;20.70;;;1.60;99.90;;;;;;5059107;28;20138;-47
2022/12/03 10:03:26;;;;;;;49.22;28.30;;;1.60;99.90;;;;;;5089699;28;20131;-46
2022/12/03 10:05:53;;;;;;;46.03;25.85;;;1.70;99.90;;;;;;5078466;28;20076;-46
2022/12/03 10:08:21;;;;;;;45.72;25.00;;;1.70;99.90;;;;;;5061183;28;20055;-45
2022/12/03 10:10:50;;;;;;;44.30;24.27;;;1.80;99.90;;;;;;5052531;28;20051;-50
2022/12/03 10:13:26;;;;;;;46.72;27.35;;;1.80;99.90;;;;;;5063511;28;20101;-47
2022/12/03 10:15:54;;;;;;;42.42;21.00;;;1.90;99.90;;;;;;5072565;28;20516;-46
2022/12/03 10:18:26;;;;;;;46.88;28.05;;;1.90;99.90;;;;;;5072746;28;20072;-48
2022/12/03 10:20:52;;;;;;;44.75;23.33;;;2.00;99.90;;;;;;5073096;28;20070;-46
2022/12/03 10:23:19;;;;;;;50.53;27.83;;;1.90;99.90;;;;;;5070425;28;20071;-46
2022/12/03 10:26:01;;;;;;;45.90;25.70;;;1.90;99.90;;;;;;5043464;28;20044;-48
2022/12/03 10:28:39;;;;;;;43.88;25.60;;;1.90;99.90;;;;;;5049360;28;20391;-46
2022/12/03 10:31:07;;;;;;;43.95;24.67;;;1.90;99.90;;;;;;5052612;28;20041;-45
2022/12/03 10:33:40;;;;;;;43.85;21.88;;;1.90;99.90;;;;;;5060294;28;20109;-48
2022/12/03 10:36:22;;;;;;;45.10;24.02;;;1.90;99.90;;;;;;5071442;28;20132;-45
2022/12/03 10:39:08;;;;;;;42.20;22.35;;;1.90;99.90;;;;;;5072781;28;20394;-45
2022/12/03 10:41:34;;;;;;;51.92;24.05;;;1.90;99.90;;;;;;5067121;28;20163;-49
2022/12/03 10:44:20;;;;;;;42.55;21.77;;;1.90;99.90;;;;;;5057917;28;20041;-49
2022/12/03 10:47:08;;;;;;;46.67;25.60;;;1.90;99.90;;;;;;5052062;28;20072;-48
2022/12/03 10:49:33;;;;;;;52.22;28.95;;;1.90;99.90;;;;;;5034256;28;20067;-49
2022/12/03 10:51:59;;;;;;;48.65;26.42;;;2.00;99.90;;;;;;5065234;28;20398;-47
2022/12/03 10:54:27;;;;;;;48.58;27.42;;;2.00;99.90;;;;;;5069915;28;20515;-48
2022/12/03 10:56:53;;;;;;;40.28;23.23;;;2.10;99.90;;;;;;5072242;28;20040;-47
2022/12/03 10:59:28;;;;;;;43.58;24.67;;;2.00;99.90;;;;;;5052799;28;20051;-46
2022/12/03 11:01:54;;;;;;;41.88;24.20;;;2.10;99.90;;;;;;5067183;28;20040;-46
2022/12/03 11:04:28;;;;;;;45.35;25.15;;;2.10;99.90;;;;;;5068738;28;20116;-48
2022/12/03 11:06:54;;;;;;;47.25;26.55;;;2.10;99.90;;;;;;5066169;28;20037;-48
2022/12/03 11:09:23;;;;;;;41.60;22.55;;;2.10;99.90;;;;;;5062409;28;20062;-46
2022/12/03 11:11:49;;;;;;;46.85;27.00;;;2.00;99.90;;;;;;5065194;28;20033;-47
2022/12/03 11:14:47;;;;;;;47.53;29.40;;;1.90;99.90;;;;;;5066365;28;20048;-49
2022/12/03 11:17:50;;;;;;;45.55;27.35;;;1.90;99.90;;;;;;5062215;28;20078;-46
2022/12/03 11:20:19;;;;;;;45.53;24.10;;;1.90;99.90;;;;;;5065173;28;20040;-45
2022/12/03 11:22:47;;;;;;;46.22;28.50;;;1.90;99.90;;;;;;5066651;28;20032;-48
2022/12/03 11:25:28;;;;;;;;;;;1.90;99.90;;;;;;5071163;28;20452;-46
2022/12/03 11:28:12;;;;;;;43.55;24.50;;;1.90;99.90;;;;;;5071205;28;20582;-47
2022/12/03 11:30:57;;;;;;;48.42;28.25;;;1.90;99.90;;;;;;5068217;28;20064;-46
2022/12/03 11:33:29;;;;;;;49.88;28.67;;;1.90;99.90;;;;;;5070213;28;20036;-46
2022/12/03 11:36:04;;;;;;;52.13;30.77;;;1.90;99.90;;;;;;5069616;28;20101;-46
2022/12/03 11:38:39;;;;;;;45.35;25.08;;;1.90;99.90;;;;;;5051657;28;20055;-46
2022/12/03 11:41:29;;;;;;;49.83;27.50;;;1.80;99.90;;;;;;5063079;28;20555;-46
2022/12/03 11:44:01;;;;;;;44.97;24.77;;;1.80;99.90;;;;;;5065368;28;20040;-49
2022/12/03 11:46:42;;;;;;;53.15;29.83;;;1.70;99.90;;;;;;5053116;28;20167;-46
2022/12/03 11:49:21;;;;;;;46.85;28.70;;;1.70;99.90;;;;;;5068139;28;20052;-48
2022/12/03 11:51:47;;;;;;;45.75;25.23;;;1.60;99.90;;;;;;5068443;28;20090;-45
2022/12/03 11:54:16;;;;;;;49.75;28.45;;;1.60;99.90;;;;;;5063606;28;20049;-46
2022/12/03 11:56:49;;;;;;;46.17;26.83;;;1.50;99.90;;;;;;5051804;28;20052;-47
2022/12/03 11:59:17;;;;;;;44.13;24.55;;;1.60;99.90;;;;;;5069595;28;20036;-46
2022/12/03 12:01:43;;;;;;;53.07;29.20;;;1.50;99.90;;;;;;5071446;28;20063;-47
2022/12/03 12:04:31;;;;;;;50.22;27.27;;;1.50;99.90;;;;;;5070241;28;20063;-48
2022/12/03 12:06:56;;;;;;;51.88;29.27;;;1.40;99.90;;;;;;5069431;28;20045;-47
2022/12/03 12:09:49;;;;;;;50.35;27.67;;;1.40;99.90;;;;;;5071375;28;20737;-48
2022/12/03 12:12:38;;;;;;;47.72;25.15;;;1.40;99.90;;;;;;5066547;28;20040;-48
2022/12/03 12:15:31;;;;;;;52.88;29.67;;;1.40;99.90;;;;;;5071251;28;20135;-48
2022/12/03 12:18:35;;;;;;;57.47;31.48;;;1.40;99.90;;;;;;5068411;28;20083;-47
2022/12/03 12:21:41;;;;;;;50.40;28.45;;;1.40;99.90;;;;;;5070200;28;20048;-49
2022/12/03 12:24:46;;;;;;;51.90;29.40;;;1.40;99.90;;;;;;5068489;28;20040;-47
2022/12/03 12:27:24;;;;;;;52.08;29.40;;;1.30;99.90;;;;;;5069510;28;20098;-48
2022/12/03 12:30:00;;;;;;;49.80;26.98;;;1.40;99.90;;;;;;5051232;28;20041;-45
2022/12/03 12:32:42;;;;;;;51.92;30.00;;;1.40;99.90;;;;;;5049689;28;20414;-46
2022/12/03 12:35:24;;;;;;;50.40;28.52;;;1.40;99.90;;;;;;5063723;28;20071;-47
2022/12/03 12:38:00;;;;;;;46.22;22.85;;;1.30;99.90;;;;;;5067656;28;20455;-47
2022/12/03 12:40:29;;;;;;;39.83;21.75;;;1.30;99.90;;;;;;5066126;28;20052;-48
2022/12/03 12:42:57;;;;;;;48.30;28.10;;;1.20;99.90;;;;;;5067152;28;20391;-47
2022/12/03 12:45:29;;;;;;;41.08;22.27;;;1.40;99.90;;;;;;5065837;28;20056;-47
2022/12/03 12:48:13;;;;;;;51.50;29.17;;;1.50;99.90;;;;;;5065678;28;20064;-46
2022/12/03 12:50:41;;;;;;;51.20;29.25;;;1.20;99.90;;;;;;5072774;28;20048;-46
2022/12/03 12:53:09;;;;;;;52.25;29.70;;;1.50;99.90;;;;;;5068276;28;20116;-46
2022/12/03 12:55:37;;;;;;;47.25;27.50;;;1.60;99.90;;;;;;5070133;28;20449;-46
2022/12/03 12:58:10;;;;;;;44.72;24.45;;;1.40;99.90;;;;;;5066204;28;21450;-48
2022/12/03 13:00:36;;;;;;;39.92;20.48;;;1.50;99.90;;;;;;5055112;28;20032;-47
2022/12/03 13:03:03;;;;;;;40.63;22.13;;;;;;;;;;5067686;28;20524;-47
2022/12/03 13:05:41;;;;;;;47.03;27.80;;;1.50;99.90;;;;;;5065965;28;20044;-47
2022/12/03 13:08:53;;;;;;;53.28;30.45;;;1.30;99.90;;;;;;5068987;28;20044;-46
2022/12/03 13:11:44;;;;;;;69.35;28.38;;;1.60;99.90;;;;;;4983941;28;20434;-46
2022/12/03 13:14:38;;;;;;;38.15;20.75;;;1.40;99.90;;;;;;4982649;28;20086;-47
2022/12/03 13:17:17;;;;;;;46.10;25.23;;;1.50;99.90;;;;;;4978695;28;20046;-48